Time;durP1;ratioP1;P1;durP2;ratioP2;P2;SDS_P1;SDS_P2;PMS_P1;PMS_P2;Temp;Humidity;BMP_temperature;BMP_pressure;BME280_temperature;BME280_humidity;BME280_pressure;Samples;Min_cycle;Max_cycle;Signal;HPM_P1;HPM_P2
2022/09/11 00:00:51;;;;;;;17.15;10.43;;;;;;;13.11;100.00;98680.78;1673653;85;21127;-68
2022/09/11 00:03:20;;;;;;;15.70;9.83;;;;;;;13.12;100.00;98683.19;1673032;84;21072;-68
2022/09/11 00:05:47;;;;;;;14.05;9.98;;;;;;;13.14;100.00;98676.73;1684742;84;21160;-68
2022/09/11 00:08:16;;;;;;;12.70;10.23;;;;;;;13.18;100.00;98681.00;1669603;84;21041;-68
2022/09/11 00:10:47;;;;;;;16.10;10.53;;;;;;;13.19;100.00;98680.64;1679724;84;20970;-68
2022/09/11 00:13:20;;;;;;;14.65;10.13;;;;;;;13.23;100.00;98679.94;1673773;84;20986;-68
2022/09/11 00:15:49;;;;;;;13.53;9.53;;;;;;;13.23;100.00;98671.67;1677766;84;21565;-68
2022/09/11 00:18:23;;;;;;;16.10;10.28;;;;;;;13.24;100.00;98671.31;1676954;83;21213;-68
2022/09/11 00:20:53;;;;;;;15.50;10.17;;;;;;;13.27;100.00;98676.13;1672713;85;21636;-68
2022/09/11 00:23:23;;;;;;;21.20;9.93;;;;;;;13.29;100.00;98675.73;1673155;84;21000;-69
2022/09/11 00:25:50;;;;;;;15.05;9.33;;;;;;;13.31;100.00;98670.67;1667317;84;21069;-68
2022/09/11 00:28:23;;;;;;;13.80;10.08;;;;;;;13.34;100.00;98674.09;1670598;84;21576;-68
2022/09/11 00:30:59;;;;;;;18.50;10.98;;;;;;;13.35;100.00;98670.98;1680930;84;21161;-69
2022/09/11 00:33:26;;;;;;;14.18;10.70;;;;;;;13.38;100.00;98659.25;1685004;84;21517;-69
2022/09/11 00:36:02;;;;;;;11.95;9.90;;;;;;;13.41;100.00;98670.14;1681705;84;20872;-69
2022/09/11 00:38:31;;;;;;;12.98;10.72;;;;;;;13.43;100.00;98670.02;1673357;84;20983;-69
2022/09/11 00:40:59;;;;;;;14.93;11.35;;;;;;;13.48;100.00;98660.67;1676516;84;21553;-69
2022/09/11 00:43:28;;;;;;;14.83;11.63;;;;;;;13.52;100.00;98655.47;1675952;84;21244;-68
2022/09/11 00:45:59;;;;;;;14.03;10.72;;;;;;;13.55;100.00;98663.03;1673510;84;21180;-69
2022/09/11 00:48:28;;;;;;;13.88;10.53;;;;;;;13.59;100.00;98667.25;1671419;84;21168;-69
2022/09/11 00:50:55;;;;;;;12.05;9.75;;;;;;;13.62;100.00;98657.47;1679670;84;21114;-69
2022/09/11 00:53:23;;;;;;;12.58;10.82;;;;;;;13.65;100.00;98658.94;1675327;84;21170;-70
2022/09/11 00:55:53;;;;;;;13.43;11.85;;;;;;;13.67;100.00;98662.13;1669353;84;21160;-69
2022/09/11 00:58:24;;;;;;;12.47;10.25;;;;;;;13.69;100.00;98662.58;1680510;84;21114;-69
2022/09/11 01:00:53;;;;;;;18.60;12.18;;;;;;;13.72;100.00;98656.34;1672882;84;21037;-70
2022/09/11 01:03:19;;;;;;;22.45;12.25;;;;;;;13.77;100.00;98662.17;1664501;84;21250;-69
2022/09/11 01:05:47;;;;;;;19.00;12.58;;;;;;;13.79;100.00;98662.03;1671401;84;21105;-69
2022/09/11 01:08:14;;;;;;;15.80;11.08;;;;;;;13.83;100.00;98667.63;1673026;84;22090;-70
2022/09/11 01:11:00;;;;;;;14.23;10.05;;;;;;;13.85;100.00;98667.50;1678343;84;20872;-70
2022/09/11 01:13:58;;;;;;;16.82;11.97;;;;;;;13.89;100.00;98666.97;1647759;84;21054;-69
2022/09/11 01:16:36;;;;;;;13.95;10.78;;;;;;;13.94;100.00;98667.86;1679729;85;20991;-69
2022/09/11 01:19:41;;;;;;;14.45;11.68;;;;;;;13.97;100.00;98664.38;1676786;84;21593;-70
2022/09/11 01:22:19;;;;;;;14.63;11.40;;;;;;;13.99;100.00;98655.16;1618142;86;21233;-69
2022/09/11 01:25:14;;;;;;;14.40;11.45;;;;;;;14.02;100.00;98658.58;1628890;86;21091;-69
2022/09/11 01:27:53;;;;;;;15.68;10.65;;;;;;;14.05;100.00;98662.00;1652634;84;21439;-68
2022/09/11 01:30:22;;;;;;;17.48;15.13;;;;;;;14.07;100.00;98679.80;1672128;84;21053;-67
2022/09/11 01:33:12;;;;;;;12.00;8.80;;;;;;;14.09;100.00;98699.56;1682375;84;21019;-68
2022/09/11 01:36:07;;;;;;;9.88;7.25;;;;;;;14.09;100.00;98709.22;1666534;84;21280;-68
2022/09/11 01:38:43;;;;;;;7.87;7.08;;;;;;;13.99;100.00;98713.11;1663995;84;21025;-68
2022/09/11 01:41:29;;;;;;;8.88;7.05;;;;;;;13.78;100.00;98721.12;1657520;84;20971;-68
2022/09/11 01:44:21;;;;;;;8.43;7.62;;;;;;;13.63;100.00;98726.05;1675817;84;21043;-68
2022/09/11 01:46:50;;;;;;;11.22;7.37;;;;;;;13.50;100.00;98725.91;1670693;85;21021;-68
2022/09/11 01:49:34;;;;;;;12.25;7.22;;;;;;;13.40;100.00;98723.09;1678138;84;21123;-69
2022/09/11 01:52:07;;;;;;;9.78;7.40;;;;;;;13.32;100.00;98724.64;1675758;84;20940;-68
2022/09/11 01:54:41;;;;;;;9.38;8.28;;;;;;;13.22;100.00;98720.48;1677949;84;21508;-68
2022/09/11 01:57:17;;;;;;;12.37;7.80;;;;;;;13.17;100.00;98723.48;1675591;84;21586;-67
2022/09/11 01:59:47;;;;;;;10.65;7.67;;;;;;;13.10;100.00;98724.64;1675248;85;21004;-68
2022/09/11 02:02:18;;;;;;;7.75;6.95;;;;;;;13.04;100.00;98730.98;1673449;84;21153;-68
2022/09/11 02:04:53;;;;;;;8.88;7.53;;;;;;;13.02;100.00;98730.53;1675612;84;21083;-68
2022/09/11 02:07:26;;;;;;;9.80;6.90;;;;;;;12.95;100.00;98729.53;1690544;84;21034;-68
2022/09/11 02:10:00;;;;;;;9.78;7.08;;;;;;;12.88;100.00;98732.31;1654246;84;21027;-69
2022/09/11 02:12:39;;;;;;;9.18;6.95;;;;;;;12.79;100.00;98744.63;1679078;84;20999;-68
2022/09/11 02:15:08;;;;;;;11.73;7.60;;;;;;;12.72;100.00;98752.68;1689729;84;21313;-68
2022/09/11 02:17:44;;;;;;;13.13;6.75;;;;;;;12.64;100.00;98755.02;1665940;84;20967;-67
2022/09/11 02:20:11;;;;;;;10.88;6.35;;;;;;;12.53;100.00;98758.26;1667039;84;21020;-68
2022/09/11 02:22:37;;;;;;;4.80;4.30;;;;;;;12.43;100.00;98762.06;1675560;84;21046;-68
2022/09/11 02:25:05;;;;;;;5.35;4.50;;;;;;;12.34;100.00;98761.39;1662655;84;21459;-69
2022/09/11 02:27:32;;;;;;;5.47;3.42;;;;;;;12.21;100.00;98764.72;1681940;84;21234;-70
2022/09/11 02:29:59;;;;;;;4.65;3.83;;;;;;;12.11;100.00;98764.64;1686513;84;21058;-69
2022/09/11 02:32:26;;;;;;;5.42;3.85;;;;;;;12.02;100.00;98759.83;1601840;86;21135;-68
2022/09/11 02:34:54;;;;;;;5.42;3.25;;;;;;;11.94;100.00;98762.69;1624860;86;21027;-69
2022/09/11 02:37:48;;;;;;;6.10;3.22;;;;;;;11.86;100.00;98772.66;1665947;84;21102;-68
2022/09/11 02:40:42;;;;;;;2.85;2.50;;;;;;;11.79;100.00;98773.80;1669386;84;21819;-69
2022/09/11 02:43:25;;;;;;;6.25;2.70;;;;;;;11.72;100.00;98779.83;1667716;84;21010;-70
2022/09/11 02:46:27;;;;;;;4.47;2.90;;;;;;;11.67;100.00;98773.17;1679724;83;21588;-69
2022/09/11 02:49:06;;;;;;;5.55;2.62;;;;;;;11.64;100.00;98777.98;1672343;84;22106;-69
2022/09/11 02:51:51;;;;;;;3.80;2.25;;;;;;;11.60;100.00;98785.30;1665438;84;21010;-69
2022/09/11 02:54:53;;;;;;;2.80;2.50;;;;;;;11.53;100.00;98781.77;1674664;84;21166;-69
2022/09/11 02:57:46;;;;;;;3.05;2.05;;;;;;;11.51;100.00;98788.75;1638827;86;20963;-68
2022/09/11 03:00:12;;;;;;;3.37;2.17;;;;;;;11.48;100.00;98792.17;1691706;84;21010;-68
2022/09/11 03:02:41;;;;;;;3.40;1.67;;;;;;;11.45;100.00;98792.86;1674104;83;21075;-67
2022/09/11 03:05:09;;;;;;;5.80;2.25;;;;;;;11.44;100.00;98800.86;1612166;84;21015;-68
2022/09/11 03:07:36;;;;;;;4.17;2.30;;;;;;;11.43;100.00;98796.52;1657420;84;21894;-68
2022/09/11 03:10:07;;;;;;;2.10;1.90;;;;;;;11.43;100.00;98799.27;1664072;85;21055;-68
2022/09/11 03:12:35;;;;;;;3.55;2.40;;;;;;;11.41;100.00;98800.17;1667078;84;21094;-68
2022/09/11 03:15:04;;;;;;;1.87;1.77;;;;;;;11.39;100.00;98805.20;1661030;84;21033;-68
2022/09/11 03:17:32;;;;;;;2.10;1.90;;;;;;;11.37;100.00;98796.49;1657907;84;20963;-69
2022/09/11 03:19:59;;;;;;;7.00;2.08;;;;;;;11.34;100.00;98807.59;1665382;84;21739;-68
2022/09/11 03:22:30;;;;;;;2.92;2.30;;;;;;;11.31;100.00;98799.22;1669122;84;21050;-69
2022/09/11 03:24:58;;;;;;;2.52;2.00;;;;;;;11.29;100.00;98805.05;1673934;84;21059;-69
2022/09/11 03:27:26;;;;;;;4.78;1.82;;;;;;;11.29;100.00;98808.38;1667327;84;21447;-69
2022/09/11 03:29:55;;;;;;;2.17;1.95;;;;;;;11.25;100.00;98803.55;1658129;84;21115;-69
2022/09/11 03:32:25;;;;;;;4.83;2.60;;;;;;;11.22;100.00;98796.55;1643352;85;21470;-69
2022/09/11 03:34:52;;;;;;;3.65;2.60;;;;;;;11.18;100.00;98789.56;1657799;84;22496;-69
2022/09/11 03:37:19;;;;;;;8.48;2.72;;;;;;;11.17;100.00;98787.95;1664242;85;21000;-68
2022/09/11 03:39:47;;;;;;;2.95;2.62;;;;;;;11.15;100.00;98798.47;1666969;84;21162;-68
2022/09/11 03:42:14;;;;;;;3.00;2.67;;;;;;;11.12;100.00;98807.39;1664627;84;20951;-68
2022/09/11 03:44:41;;;;;;;4.15;2.92;;;;;;;11.12;100.00;98803.84;1667971;84;22160;-68
2022/09/11 03:47:10;;;;;;;3.35;2.95;;;;;;;11.10;100.00;98800.05;1650610;84;21028;-68
2022/09/11 03:49:38;;;;;;;4.22;2.90;;;;;;;11.09;100.00;98803.94;1654376;84;21093;-69
2022/09/11 03:52:05;;;;;;;3.20;2.85;;;;;;;11.08;100.00;98800.16;1606105;87;21499;-67
2022/09/11 03:54:34;;;;;;;5.42;3.05;;;;;;;11.09;100.00;98799.02;1668077;84;21431;-67
2022/09/11 03:57:01;;;;;;;5.95;3.60;;;;;;;11.08;100.00;98805.08;1657187;84;21159;-69
2022/09/11 03:59:30;;;;;;;5.15;3.35;;;;;;;11.07;100.00;98800.73;1657739;84;21083;-69
2022/09/11 04:01:57;;;;;;;8.70;3.75;;;;;;;11.08;100.00;98806.45;1605399;87;21170;-68
2022/09/11 04:04:24;;;;;;;4.47;3.58;;;;;;;11.07;100.00;98808.97;1668841;84;20972;-69
2022/09/11 04:06:52;;;;;;;3.87;3.42;;;;;;;11.08;100.00;98807.02;1661740;84;20983;-69
2022/09/11 04:09:19;;;;;;;3.98;2.83;;;;;;;11.07;100.00;98809.53;1653902;84;21783;-69
2022/09/11 04:11:49;;;;;;;5.42;3.27;;;;;;;11.05;100.00;98807.13;1646596;84;21113;-68
2022/09/11 04:14:21;;;;;;;4.60;3.00;;;;;;;11.04;100.00;98810.21;1638668;86;20957;-68
2022/09/11 04:16:48;;;;;;;3.98;2.70;;;;;;;11.02;100.00;98812.48;1648932;86;21638;-67
2022/09/11 04:19:17;;;;;;;2.30;2.10;;;;;;;11.01;100.00;98806.77;1656298;85;21061;-67
2022/09/11 04:21:44;;;;;;;2.35;2.10;;;;;;;11.00;100.00;98804.59;1622812;87;21337;-67
2022/09/11 04:24:11;;;;;;;2.33;1.87;;;;;;;10.96;100.00;98801.50;1654688;86;20905;-67
2022/09/11 04:26:38;;;;;;;7.00;2.20;;;;;;;10.94;100.00;98800.47;1654927;86;20965;-66
2022/09/11 04:29:25;;;;;;;3.40;2.20;;;;;;;10.89;100.00;98808.91;1645637;86;21029;-67
2022/09/11 04:31:52;;;;;;;2.30;1.98;;;;;;;10.88;100.00;98811.42;1659979;86;21579;-67
2022/09/11 04:34:19;;;;;;;3.47;1.67;;;;;;;10.85;100.00;98811.52;1627888;87;22069;-66
2022/09/11 04:36:46;;;;;;;3.87;1.98;;;;;;;10.82;100.00;98808.64;1648164;86;20953;-67
2022/09/11 04:39:15;;;;;;;2.70;1.82;;;;;;;10.82;100.00;98805.89;1634443;86;21028;-67
2022/09/11 04:41:43;;;;;;;3.25;1.80;;;;;;;10.81;100.00;98811.15;1655988;86;21461;-67
2022/09/11 04:44:10;;;;;;;6.00;1.57;;;;;;;10.82;100.00;98805.89;1644501;86;21492;-66
2022/09/11 04:46:39;;;;;;;3.27;1.65;;;;;;;10.84;100.00;98804.42;1654742;84;21134;-68
2022/09/11 04:49:08;;;;;;;5.25;1.82;;;;;;;10.85;100.00;98803.85;1652187;86;21001;-67
2022/09/11 04:51:35;;;;;;;2.47;1.70;;;;;;;10.87;100.00;98798.27;1625043;87;20895;-68
2022/09/11 04:54:03;;;;;;;4.35;1.72;;;;;;;10.92;100.00;98804.12;1649773;86;21041;-68
2022/09/11 04:56:36;;;;;;;2.10;1.90;;;;;;;10.92;100.00;98806.86;1647377;86;20921;-67
2022/09/11 04:59:18;;;;;;;2.37;1.92;;;;;;;10.91;100.00;98814.30;1655345;86;21472;-66
2022/09/11 05:01:47;;;;;;;2.98;2.10;;;;;;;10.92;100.00;98816.48;1656035;85;21022;-66
2022/09/11 05:04:17;;;;;;;4.10;1.70;;;;;;;10.93;100.00;98812.59;1649842;85;21029;-66
2022/09/11 05:06:47;;;;;;;1.60;1.50;;;;;;;10.96;100.00;98817.41;1655834;85;20952;-67
2022/09/11 05:09:14;;;;;;;2.98;1.95;;;;;;;11.00;100.00;98816.14;1651592;86;21139;-69
2022/09/11 05:11:41;;;;;;;3.45;2.05;;;;;;;11.03;100.00;98819.59;1671837;84;21537;-68
2022/09/11 05:14:10;;;;;;;3.70;2.52;;;;;;;11.07;100.00;98826.02;1664867;84;20986;-68
2022/09/11 05:16:38;;;;;;;3.15;2.62;;;;;;;11.09;100.00;98823.73;1666961;84;21626;-70
2022/09/11 05:19:04;;;;;;;3.37;2.60;;;;;;;11.11;100.00;98825.58;1658546;84;21087;-69
2022/09/11 05:21:32;;;;;;;3.15;2.52;;;;;;;11.14;100.00;98824.34;1668141;84;21232;-68
2022/09/11 05:24:01;;;;;;;3.20;2.30;;;;;;;11.18;100.00;98828.02;1684649;84;21251;-67
2022/09/11 05:26:31;;;;;;;2.70;2.33;;;;;;;11.22;100.00;98833.08;1685771;84;21179;-69
2022/09/11 05:29:10;;;;;;;6.00;4.55;;;;;;;11.24;100.00;98832.16;1647449;85;21121;-68
2022/09/11 05:31:36;;;;;;;11.03;7.33;;;;;;;11.26;100.00;98841.45;1681824;84;21169;-73
2022/09/11 05:34:03;;;;;;;16.07;9.88;;;;;;;11.28;100.00;98839.73;1676942;84;21561;-68
2022/09/11 05:36:31;;;;;;;8.50;6.25;;;;;;;11.29;100.00;98841.34;1678599;84;21515;-74
2022/09/11 05:38:59;;;;;;;5.65;4.55;;;;;;;11.31;100.00;98844.55;1676934;84;21006;-71
2022/09/11 05:41:25;;;;;;;8.28;6.40;;;;;;;11.31;100.00;98842.61;1680767;84;21026;-69
2022/09/11 05:43:53;;;;;;;21.75;17.67;;;;;;;11.33;100.00;98836.78;1668902;84;21653;-71
2022/09/11 05:46:20;;;;;;;17.77;14.80;;;;;;;11.36;100.00;98837.48;1686801;84;21063;-77
2022/09/11 05:48:49;;;;;;;9.40;7.03;;;;;;;11.38;100.00;98833.25;1672175;84;21997;-71
2022/09/11 05:51:19;;;;;;;5.95;5.33;;;;;;;11.41;100.00;98822.95;1676316;84;21086;-69
2022/09/11 05:53:47;;;;;;;19.73;16.90;;;;;;;11.42;100.00;98823.77;1651210;86;21042;-69
2022/09/11 05:56:18;;;;;;;9.73;8.53;;;;;;;11.44;100.00;98824.23;1661991;84;21114;-70
2022/09/11 05:58:47;;;;;;;13.78;9.65;;;;;;;11.50;100.00;98822.88;1675465;84;21038;-69
2022/09/11 06:01:16;;;;;;;25.40;15.55;;;;;;;11.56;100.00;98825.61;1648169;86;21860;-69
2022/09/11 06:03:43;;;;;;;9.08;7.45;;;;;;;11.64;100.00;98828.03;1635067;86;21269;-68
2022/09/11 06:06:11;;;;;;;13.13;8.55;;;;;;;11.66;100.00;98823.80;1633764;87;21087;-77
2022/09/11 06:08:41;;;;;;;13.32;8.38;;;;;;;11.66;100.00;98825.18;1641203;86;21205;-77
2022/09/11 06:11:09;;;;;;;11.35;7.55;;;;;;;11.68;100.00;98828.39;1634107;87;21102;-76
2022/09/11 06:13:39;;;;;;;9.75;6.12;;;;;;;11.69;100.00;98823.12;1650280;84;21170;-70
2022/09/11 06:16:13;;;;;;;8.85;6.90;;;;;;;11.73;100.00;98826.00;1693035;84;20991;-67
2022/09/11 06:18:41;;;;;;;8.33;6.20;;;;;;;11.76;100.00;98826.12;1682429;84;20984;-67
2022/09/11 06:21:12;;;;;;;7.80;5.40;;;;;;;11.81;100.00;98823.75;1680479;84;21102;-67
2022/09/11 06:23:43;;;;;;;8.75;5.95;;;;;;;11.84;100.00;98818.38;1676992;84;20910;-76
2022/09/11 06:26:13;;;;;;;7.20;5.95;;;;;;;11.88;100.00;98829.50;1663608;84;21764;-71
2022/09/11 06:28:41;;;;;;;9.38;4.97;;;;;;;11.93;100.00;98836.16;1680936;84;21038;-75
2022/09/11 06:31:15;;;;;;;9.13;6.60;;;;;;;11.95;100.00;98833.86;1675182;84;21638;-71
2022/09/11 06:33:41;;;;;;;13.03;7.15;;;;;;;11.99;100.00;98838.91;1667018;84;21460;-71
2022/09/11 06:36:16;;;;;;;7.00;5.67;;;;;;;12.03;100.00;98837.66;1680521;84;20956;-71
2022/09/11 06:38:43;;;;;;;7.10;4.40;;;;;;;12.06;100.00;98839.72;1629398;86;21211;-71
2022/09/11 06:41:15;;;;;;;5.00;4.50;;;;;;;12.07;100.00;98841.33;1646065;86;21106;-70
2022/09/11 06:43:43;;;;;;;6.65;4.03;;;;;;;12.09;100.00;98837.66;1619353;86;33704;-70
2022/09/11 06:46:19;;;;;;;4.25;3.85;;;;;;;12.10;100.00;98835.14;1633551;86;21001;-72
2022/09/11 06:48:47;;;;;;;7.30;4.25;;;;;;;12.13;100.00;98833.08;1648103;86;21138;-73
2022/09/11 06:51:19;;;;;;;6.08;3.90;;;;;;;12.18;100.00;98832.25;1645648;86;21795;-71
2022/09/11 06:53:48;;;;;;;;;;;;;;;12.24;100.00;98836.95;1656547;86;21562;-71
2022/09/11 06:56:17;;;;;;;5.45;4.00;;;;;;;12.25;100.00;98844.06;1641660;86;20147;-71
2022/09/11 06:58:45;;;;;;;5.08;3.80;;;;;;;12.22;100.00;98844.17;1641888;86;21125;-71
2022/09/11 07:01:16;;;;;;;3.80;3.20;;;;;;;12.22;100.00;98850.25;1625623;86;21632;-72
2022/09/11 07:03:44;;;;;;;3.83;3.47;;;;;;;12.23;100.00;98847.73;1654360;86;21382;-72
2022/09/11 07:06:13;;;;;;;4.58;4.15;;;;;;;12.27;100.00;98854.73;1638089;86;20947;-73
2022/09/11 07:08:41;;;;;;;5.03;4.20;;;;;;;12.32;100.00;98870.44;1631695;86;20892;-75
2022/09/11 07:11:10;;;;;;;4.05;3.65;;;;;;;12.36;100.00;98861.73;1642720;85;21466;-75
2022/09/11 07:13:37;;;;;;;5.30;3.83;;;;;;;12.39;100.00;98863.80;1652407;86;21079;-76
2022/09/11 07:16:07;;;;;;;5.95;4.10;;;;;;;12.38;100.00;98866.31;1641271;86;21138;-73
2022/09/11 07:18:36;;;;;;;6.28;3.92;;;;;;;12.42;100.00;98863.11;1642760;86;21577;-71
2022/09/11 07:21:07;;;;;;;4.33;3.92;;;;;;;12.48;100.00;98868.61;1655230;86;21275;-75
2022/09/11 07:23:35;;;;;;;4.15;3.70;;;;;;;12.55;100.00;98867.46;1631610;86;20975;-74
2022/09/11 07:26:09;;;;;;;5.62;4.03;;;;;;;12.56;100.00;98862.19;1627222;86;21027;-73
2022/09/11 07:28:41;;;;;;;4.42;4.03;;;;;;;12.56;100.00;98861.38;1643113;86;21264;-76
2022/09/11 07:31:10;;;;;;;4.50;3.55;;;;;;;12.63;100.00;98860.23;1637890;86;21050;-75
2022/09/11 07:33:38;;;;;;;4.62;4.12;;;;;;;12.70;100.00;98858.27;1643704;86;21089;-76
2022/09/11 07:36:20;;;;;;;5.40;4.80;;;;;;;12.77;100.00;98855.71;1641999;86;21554;-70
2022/09/11 07:38:49;;;;;;;4.67;3.77;;;;;;;12.89;100.00;98852.36;1650698;86;21085;-72
2022/09/11 07:41:19;;;;;;;7.90;4.67;;;;;;;13.02;100.00;98850.38;1637255;86;21303;-72
2022/09/11 07:43:47;;;;;;;6.28;4.85;;;;;;;13.10;100.00;98846.69;1639622;85;21127;-73
2022/09/11 07:46:13;;;;;;;7.12;4.75;;;;;;;13.12;100.00;98847.72;1657382;84;21017;-69
2022/09/11 07:48:41;;;;;;;5.47;4.75;;;;;;;13.11;100.00;98844.16;1662774;84;21183;-70
2022/09/11 07:51:11;;;;;;;8.98;5.92;;;;;;;13.12;100.00;98849.09;1635390;86;21028;-70
2022/09/11 07:53:43;;;;;;;7.20;6.08;;;;;;;13.11;100.00;98844.73;1676192;84;21942;-71
2022/09/11 07:56:24;;;;;;;9.78;6.50;;;;;;;13.09;100.00;98847.84;1675547;84;20873;-70
2022/09/11 07:58:53;;;;;;;7.12;4.37;;;;;;;13.07;100.00;98846.01;1675176;84;20968;-73
2022/09/11 08:01:24;;;;;;;5.37;4.87;;;;;;;13.07;100.00;98850.14;1665666;84;21002;-77
2022/09/11 08:03:57;;;;;;;6.05;4.87;;;;;;;13.10;100.00;98845.89;1678408;84;21079;-78
2022/09/11 08:06:27;;;;;;;6.78;4.85;;;;;;;13.13;100.00;98845.19;1687080;84;21907;-75
2022/09/11 08:08:58;;;;;;;7.20;4.65;;;;;;;13.11;100.00;98853.80;1668490;84;21070;-74
2022/09/11 08:11:24;;;;;;;10.15;5.12;;;;;;;13.13;100.00;98851.50;1691109;84;20939;-74
2022/09/11 08:13:53;;;;;;;9.40;6.05;;;;;;;13.18;100.00;98848.53;1649742;86;21014;-79
2022/09/11 08:16:24;;;;;;;5.87;4.97;;;;;;;13.23;100.00;98848.06;1620944;87;20945;-79
2022/09/11 08:18:53;;;;;;;5.58;4.70;;;;;;;13.26;100.00;98848.16;1682604;84;21736;-76
2022/09/11 08:21:21;;;;;;;6.72;4.72;;;;;;;13.29;100.00;98845.25;1650434;84;20951;-72
2022/09/11 08:23:49;;;;;;;6.55;5.08;;;;;;;13.31;100.00;98842.37;1679740;84;21003;-75
2022/09/11 08:26:21;;;;;;;6.00;4.55;;;;;;;13.32;100.00;98839.84;1672093;84;21259;-75
2022/09/11 08:28:50;;;;;;;7.50;4.60;;;;;;;13.39;100.00;98853.02;1673187;84;20967;-72
2022/09/11 08:31:19;;;;;;;5.33;4.62;;;;;;;13.44;100.00;98846.68;1670162;84;21160;-76
2022/09/11 08:33:46;;;;;;;5.25;4.72;;;;;;;13.46;100.00;98849.89;1669984;84;21201;-74
2022/09/11 08:36:16;;;;;;;6.28;4.67;;;;;;;13.50;100.00;98850.80;1677238;84;21451;-76
2022/09/11 08:38:45;;;;;;;5.60;4.70;;;;;;;13.55;100.00;98853.88;1673874;84;21132;-76
2022/09/11 08:41:29;;;;;;;6.83;5.28;;;;;;;13.62;100.00;98848.55;1673558;84;21080;-74
2022/09/11 08:44:22;;;;;;;5.15;4.65;;;;;;;13.72;100.00;98843.10;1647585;84;21240;-75
2022/09/11 08:46:59;;;;;;;5.92;4.60;;;;;;;13.84;100.00;98845.22;1673932;84;21066;-76
2022/09/11 08:49:31;;;;;;;6.05;5.25;;;;;;;13.93;100.00;98843.64;1673980;84;21070;-73
2022/09/11 08:52:00;;;;;;;5.60;5.03;;;;;;;13.95;100.00;98846.05;1675121;84;20987;-73
2022/09/11 08:54:32;;;;;;;5.15;4.55;;;;;;;13.94;100.00;98847.20;1680759;84;21619;-76
2022/09/11 08:57:08;;;;;;;5.33;4.58;;;;;;;13.99;100.00;98840.84;1661796;85;21168;-72
2022/09/11 08:59:57;;;;;;;6.87;4.78;;;;;;;14.05;100.00;98845.52;1679292;84;20972;-72
2022/09/11 09:02:37;;;;;;;6.58;5.00;;;;;;;14.08;100.00;98836.53;1684320;84;21483;-72
2022/09/11 09:05:39;;;;;;;5.92;4.92;;;;;;;14.17;100.00;98842.09;1685959;84;20958;-73
2022/09/11 09:08:31;;;;;;;5.83;5.20;;;;;;;14.23;100.00;98844.59;1668012;84;21026;-72
2022/09/11 09:11:19;;;;;;;7.22;5.37;;;;;;;14.27;100.00;98838.58;1679840;84;21113;-72
2022/09/11 09:14:19;;;;;;;6.72;5.08;;;;;;;14.33;100.00;98831.05;1669439;83;21193;-74
2022/09/11 09:17:10;;;;;;;7.30;5.75;;;;;;;14.38;100.00;98821.11;1685675;84;21030;-74
2022/09/11 09:19:52;;;;;;;5.97;4.87;;;;;;;14.37;100.00;98831.94;1643148;86;21098;-75
2022/09/11 09:22:45;;;;;;;6.10;5.37;;;;;;;14.44;100.00;98825.20;1683334;84;21007;-75
2022/09/11 09:25:16;;;;;;;6.33;5.45;;;;;;;14.59;100.00;98826.92;1652216;84;21242;-76
2022/09/11 09:27:48;;;;;;;5.78;4.75;;;;;;;14.75;100.00;98826.30;1645212;86;21685;-75
2022/09/11 09:30:20;;;;;;;9.88;5.25;;;;;;;14.80;100.00;98830.16;1684579;84;21050;-76
2022/09/11 09:33:16;;;;;;;5.75;4.70;;;;;;;14.84;100.00;98831.05;1665441;84;21563;-72
2022/09/11 09:35:43;;;;;;;5.62;4.40;;;;;;;14.85;98.56;98826.55;1659254;85;21044;-81
2022/09/11 09:38:19;;;;;;;6.90;4.62;;;;;;;14.92;99.49;98821.75;1686336;84;21136;-82
2022/09/11 09:41:22;;;;;;;5.75;4.87;;;;;;;15.01;99.55;98814.63;1687479;84;20997;-73
2022/09/11 09:44:30;;;;;;;6.65;4.47;;;;;;;15.10;99.56;98811.84;1655848;84;21094;-75
2022/09/11 09:46:59;;;;;;;5.78;4.58;;;;;;;15.31;100.00;98807.92;1675313;85;21081;-75
2022/09/11 09:49:31;;;;;;;7.22;4.30;;;;;;;15.33;95.39;98815.27;1681101;84;21478;-71
2022/09/11 09:52:05;;;;;;;4.87;4.35;;;;;;;15.33;96.45;98806.39;1653029;84;21928;-71
2022/09/11 09:54:30;;;;;;;5.58;4.83;;;;;;;15.41;95.70;98810.89;1681818;83;21071;-73
2022/09/11 09:57:06;;;;;;;6.10;5.25;;;;;;;15.52;95.45;98811.10;1675532;84;20940;-71
2022/09/11 09:59:36;;;;;;;5.42;4.83;;;;;;;15.61;93.76;98812.25;1672532;85;20963;-72
2022/09/11 10:02:03;;;;;;;5.33;4.70;;;;;;;15.68;92.35;98816.54;1660504;85;20995;-72
2022/09/11 10:04:30;;;;;;;4.72;4.17;;;;;;;15.69;92.07;98821.70;1663569;85;21133;-73
2022/09/11 10:07:13;;;;;;;4.87;4.37;;;;;;;15.73;92.93;98812.09;1675114;84;21044;-72
2022/09/11 10:09:47;;;;;;;4.58;4.17;;;;;;;15.85;93.30;98818.25;1667127;83;21021;-70
2022/09/11 10:12:23;;;;;;;5.72;4.58;;;;;;;16.09;90.25;98824.59;1675667;84;21561;-71
2022/09/11 10:15:01;;;;;;;4.40;4.00;;;;;;;16.26;87.76;98828.22;1650321;84;20985;-73
2022/09/11 10:17:31;;;;;;;5.87;3.98;;;;;;;16.52;88.25;98824.67;1661838;85;21623;-74
2022/09/11 10:20:21;;;;;;;7.22;4.00;;;;;;;16.70;85.67;98823.00;1666359;84;21100;-74
2022/09/11 10:22:49;;;;;;;10.48;4.60;;;;;;;16.72;85.30;98821.25;1672721;84;20995;-73
2022/09/11 10:25:19;;;;;;;6.42;4.67;;;;;;;16.81;85.13;98825.91;1646086;84;21024;-72
2022/09/11 10:28:07;;;;;;;4.50;3.98;;;;;;;16.85;83.55;98819.82;1657841;84;21116;-77
2022/09/11 10:30:47;;;;;;;5.20;4.40;;;;;;;16.81;83.24;98828.67;1653673;85;21962;-74
2022/09/11 10:33:30;;;;;;;5.50;4.35;;;;;;;16.75;83.48;98819.11;1654452;86;20943;-74
2022/09/11 10:35:58;;;;;;;4.78;4.05;;;;;;;16.70;85.56;98824.98;1660966;85;21042;-73
2022/09/11 10:38:45;;;;;;;8.38;4.70;;;;;;;16.65;85.24;98823.91;1653948;84;21169;-74
2022/09/11 10:41:20;;;;;;;5.33;4.20;;;;;;;16.58;84.75;98819.62;1654703;84;20984;-73
2022/09/11 10:44:04;;;;;;;4.85;4.35;;;;;;;16.42;84.55;98819.19;1642882;84;21267;-74
2022/09/11 10:46:37;;;;;;;7.62;4.78;;;;;;;16.28;85.68;98820.92;1650325;85;21016;-74
2022/09/11 10:49:10;;;;;;;4.97;4.28;;;;;;;16.14;85.91;98823.70;1670408;84;20919;-73
2022/09/11 10:51:39;;;;;;;6.10;4.72;;;;;;;15.95;85.85;98819.61;1657680;84;21110;-75
2022/09/11 10:54:18;;;;;;;5.58;4.47;;;;;;;15.76;87.32;98821.84;1662441;84;21031;-74
2022/09/11 10:57:19;;;;;;;7.00;5.85;;;;;;;15.70;88.23;98816.97;1664329;84;22172;-74
2022/09/11 11:00:14;;;;;;;6.33;4.72;;;;;;;15.69;88.92;98819.52;1656086;84;21125;-75
2022/09/11 11:02:51;;;;;;;6.83;4.95;;;;;;;15.68;89.31;98817.34;1649625;84;20971;-74
2022/09/11 11:05:34;;;;;;;7.40;5.45;;;;;;;15.67;89.27;98817.13;1660769;84;21558;-73
2022/09/11 11:08:28;;;;;;;6.90;4.92;;;;;;;15.68;90.41;98815.95;1645459;85;21113;-73
2022/09/11 11:11:32;;;;;;;8.38;5.58;;;;;;;15.72;90.67;98820.97;1648897;84;21240;-74
2022/09/11 11:14:31;;;;;;;6.40;4.65;;;;;;;15.73;89.99;98813.47;1642603;84;21018;-74
2022/09/11 11:17:36;;;;;;;5.33;4.70;;;;;;;15.72;90.56;98816.82;1657881;84;21705;-72
2022/09/11 11:20:17;;;;;;;5.62;5.03;;;;;;;15.70;89.75;98812.23;1663994;84;20979;-73
2022/09/11 11:23:21;;;;;;;5.17;4.17;;;;;;;15.71;90.99;98816.61;1679102;83;20913;-73
2022/09/11 11:26:10;;;;;;;5.20;4.50;;;;;;;15.71;90.34;98815.22;1663612;85;21363;-73
2022/09/11 11:28:58;;;;;;;8.48;4.75;;;;;;;15.75;90.87;98804.22;1661213;84;21079;-73
2022/09/11 11:31:42;;;;;;;3.50;3.20;;;;;;;15.79;91.41;98797.58;1644980;84;21019;-74
2022/09/11 11:34:27;;;;;;;4.37;3.77;;;;;;;15.80;89.36;98795.62;1672223;84;20999;-73
2022/09/11 11:37:16;;;;;;;7.62;3.52;;;;;;;15.82;89.46;98797.43;1680239;84;21062;-74
2022/09/11 11:40:01;;;;;;;5.83;3.50;;;;;;;15.87;89.85;98799.09;1674093;84;21244;-77
2022/09/11 11:42:36;;;;;;;5.25;3.35;;;;;;;15.98;90.12;98796.73;1676747;84;21027;-75
2022/09/11 11:45:17;;;;;;;4.05;3.55;;;;;;;16.19;88.46;98793.48;1672637;84;21065;-83
2022/09/11 11:47:46;;;;;;;3.85;3.40;;;;;;;16.33;89.12;98800.64;1652926;84;21525;-80
2022/09/11 11:50:30;;;;;;;4.72;4.00;;;;;;;16.50;88.84;98802.09;1677570;84;21015;-73
2022/09/11 11:53:28;;;;;;;4.17;3.72;;;;;;;16.59;87.62;98799.84;1677311;84;21154;-74
2022/09/11 11:56:15;;;;;;;5.87;3.42;;;;;;;16.65;86.24;98796.20;1681000;84;21590;-84